Time;durP1;ratioP1;P1;durP2;ratioP2;P2;SDS_P1;SDS_P2;PMS_P1;PMS_P2;Temp;Humidity;BMP_temperature;BMP_pressure;BME280_temperature;BME280_humidity;BME280_pressure;Samples;Min_cycle;Max_cycle;Signal;HPM_P1;HPM_P2
2022/12/22 03:27:53;;;;;;;4.10;3.38;;;;;;;;;;5021179;28;20045;-76
2022/12/22 03:30:20;;;;;;;5.50;3.20;;;;;;;;;;5022728;28;20694;-76
2022/12/22 03:32:46;;;;;;;4.68;3.22;;;;;;;;;;5022561;28;20025;-76
2022/12/22 03:35:12;;;;;;;4.72;3.38;;;;;;;;;;5007148;28;20026;-76
2022/12/22 03:37:38;;;;;;;5.07;3.10;;;;;;;;;;5004432;28;20026;-75
2022/12/22 03:40:05;;;;;;;5.45;3.00;;;;;;;;;;5022042;28;20124;-76
2022/12/22 03:48:00;;;;;;;4.82;3.17;;;;;;;;;;5024393;28;20052;-75
2022/12/22 03:50:27;;;;;;;4.28;3.33;;;;;;;;;;5026671;28;20044;-75
2022/12/22 03:52:53;;;;;;;6.55;3.20;;;;;;;;;;5023139;28;20033;-75
2022/12/22 03:55:19;;;;;;;6.60;2.92;;;;;;;;;;5023784;28;20037;-76
2022/12/22 03:57:45;;;;;;;6.18;3.13;;;;;;;;;;5025598;28;20094;-76
2022/12/22 04:00:11;;;;;;;6.10;3.58;;;;;;;;;;5021510;28;20041;-76
2022/12/22 04:02:37;;;;;;;5.60;2.80;;;;;;;;;;5028038;28;20646;-76
2022/12/22 04:05:04;;;;;;;3.70;3.03;;;;;;;;;;5026634;28;20017;-76
2022/12/22 04:07:30;;;;;;;5.22;2.92;;;;;;;;;;5025558;28;20032;-76
2022/12/22 04:12:53;;;;;;;4.30;3.03;;;;;;;;;;5025017;28;20052;-76
2022/12/22 04:15:19;;;;;;;4.10;2.83;;;;;;;;;;5022517;28;20099;-76
2022/12/22 04:17:45;;;;;;;4.40;3.22;;;;;;;;;;5017661;28;20032;-76
2022/12/22 04:20:11;;;;;;;5.10;3.03;;;;;;;;;;5023853;28;20372;-76
2022/12/22 04:22:37;;;;;;;3.60;3.22;;;;;;;;;;5028753;28;20029;-75
2022/12/22 04:25:04;;;;;;;8.27;3.30;;;;;;;;;;5027003;28;20022;-75
2022/12/22 04:27:30;;;;;;;5.18;3.20;;;;;;;;;;5023509;28;20045;-76
2022/12/22 04:29:56;;;;;;;6.13;3.15;;;;;;;;;;5029086;28;20485;-75
2022/12/22 04:32:22;;;;;;;3.72;2.90;;;;;;;;;;5031205;28;20044;-75
2022/12/22 04:34:48;;;;;;;6.40;3.30;;;;;;;;;;5024627;28;20034;-75
2022/12/22 04:37:15;;;;;;;4.15;3.10;;;;;;;;;;5022085;28;20028;-75
2022/12/22 04:39:41;;;;;;;6.57;3.22;;;;;;;;;;5030104;28;20026;-75
2022/12/22 04:42:07;;;;;;;4.88;3.60;;;;;;;;;;5030521;28;20083;-75
2022/12/22 04:44:33;;;;;;;4.18;3.30;;;;;;;;;;5022842;28;20033;-74
2022/12/22 04:46:59;;;;;;;4.78;3.03;;;;;;;;;;5027946;28;20025;-78
2022/12/22 04:49:26;;;;;;;5.70;3.17;;;;;;;;;;5022026;28;20025;-75
2022/12/22 04:51:52;;;;;;;5.07;3.55;;;;;;;;;;5025558;28;20532;-75
2022/12/22 04:54:18;;;;;;;4.20;3.00;;;;;;;;;;5027459;28;20025;-75
2022/12/22 04:56:44;;;;;;;8.23;3.58;;;;;;;;;;5022894;28;20091;-74
2022/12/22 04:59:10;;;;;;;5.65;3.22;;;;;;;;;;5021420;28;20033;-75
2022/12/22 05:01:36;;;;;;;6.85;3.50;;;;;;;;;;5022894;28;20029;-74
2022/12/22 05:04:02;;;;;;;6.43;3.30;;;;;;;;;;5032797;28;20060;-74
2022/12/22 05:06:29;;;;;;;4.40;3.10;;;;;;;;;;5027812;28;20032;-75
2022/12/22 05:08:55;;;;;;;4.50;3.25;;;;;;;;;;5022660;28;20029;-75
2022/12/22 05:11:21;;;;;;;6.15;3.22;;;;;;;;;;5022409;28;20033;-75
2022/12/22 05:13:47;;;;;;;4.60;3.70;;;;;;;;;;5021194;28;20683;-75
2022/12/22 05:16:14;;;;;;;4.20;3.38;;;;;;;;;;5023619;28;20425;-74
2022/12/22 05:18:41;;;;;;;4.13;3.15;;;;;;;;;;5030761;28;20033;-75
2022/12/22 05:21:12;;;;;;;4.88;3.55;;;;;;;;;;5021657;28;20048;-75
2022/12/22 05:23:38;;;;;;;4.18;2.95;;;;;;;;;;5017501;28;20041;-75
2022/12/22 05:26:05;;;;;;;4.72;3.40;;;;;;;;;;5021941;28;20040;-75
2022/12/22 05:28:31;;;;;;;5.00;3.60;;;;;;;;;;5022546;28;20021;-75
2022/12/22 05:30:57;;;;;;;5.20;3.50;;;;;;;;;;5022146;28;20028;-74
2022/12/22 05:33:23;;;;;;;6.60;3.47;;;;;;;;;;5040148;28;20533;-75
2022/12/22 05:35:50;;;;;;;6.32;3.40;;;;;;;;;;5034883;28;20107;-75
2022/12/22 05:38:16;;;;;;;4.72;3.15;;;;;;;;;;5020567;28;20025;-75
2022/12/22 05:40:42;;;;;;;4.18;3.13;;;;;;;;;;5025224;28;20028;-75
2022/12/22 05:43:09;;;;;;;4.15;3.33;;;;;;;;;;5021337;28;20021;-75
2022/12/22 05:45:35;;;;;;;6.05;3.67;;;;;;;;;;5032345;28;20013;-75
2022/12/22 05:48:01;;;;;;;7.20;4.00;;;;;;;;;;5019612;28;20087;-75
2022/12/22 05:50:27;;;;;;;6.70;3.10;;;;;;;;;;5028309;28;20025;-75
2022/12/22 05:52:54;;;;;;;4.80;3.72;;;;;;;;;;5023870;28;20112;-75
2022/12/22 05:55:20;;;;;;;4.90;3.25;;;;;;;;;;5023121;28;20068;-75
2022/12/22 05:57:46;;;;;;;6.05;3.55;;;;;;;;;;5030955;28;20111;-75
2022/12/22 06:00:14;;;;;;;5.47;3.50;;;;;;;;;;5021292;28;20278;-75
2022/12/22 06:02:41;;;;;;;8.93;3.58;;;;;;;;;;5003106;28;20032;-75
2022/12/22 06:05:07;;;;;;;8.77;4.40;;;;;;;;;;5027343;28;20385;-75
2022/12/22 06:07:33;;;;;;;7.30;3.40;;;;;;;;;;5007389;28;20029;-75
2022/12/22 06:09:59;;;;;;;6.15;3.60;;;;;;;;;;5026430;28;20034;-75
2022/12/22 06:12:26;;;;;;;4.20;3.58;;;;;;;;;;5023481;28;20025;-75
2022/12/22 06:14:52;;;;;;;4.20;3.78;;;;;;;;;;5021836;28;20098;-75
2022/12/22 06:17:18;;;;;;;6.35;3.20;;;;;;;;;;5027297;28;20025;-75
2022/12/22 06:19:44;;;;;;;4.50;3.30;;;;;;;;;;5019857;28;20025;-75
2022/12/22 06:22:10;;;;;;;7.65;3.75;;;;;;;;;;5026085;28;20033;-75
2022/12/22 06:24:36;;;;;;;4.90;3.05;;;;;;;;;;5028992;28;20025;-75
2022/12/22 06:27:02;;;;;;;6.88;3.65;;;;;;;;;;5026877;28;20176;-75
2022/12/22 06:29:28;;;;;;;4.50;3.35;;;;;;;;;;5024451;28;20048;-75
2022/12/22 06:31:55;;;;;;;5.85;3.72;;;;;;;;;;5020248;28;20024;-75
2022/12/22 06:34:21;;;;;;;5.10;2.90;;;;;;;;;;5021548;28;20101;-75
2022/12/22 06:36:47;;;;;;;5.40;3.47;;;;;;;;;;5026038;28;20029;-75
2022/12/22 06:39:15;;;;;;;9.32;3.88;;;;;;;;;;5022404;28;20681;-76
2022/12/22 06:44:26;;;;;;;5.50;3.25;;;;;;;;;;5021546;28;20048;-76
2022/12/22 06:46:53;;;;;;;7.30;3.75;;;;;;;;;;5026884;28;20473;-76
2022/12/22 06:49:19;;;;;;;5.30;3.55;;;;;;;;;;5022442;28;20037;-77
2022/12/22 06:51:46;;;;;;;7.28;4.00;;;;;;;;;;5021249;28;20028;-76
2022/12/22 06:54:12;;;;;;;4.88;3.78;;;;;;;;;;5020715;28;20030;-76
2022/12/22 06:56:38;;;;;;;5.70;4.00;;;;;;;;;;5029508;28;20129;-76
2022/12/22 06:59:04;;;;;;;5.63;3.85;;;;;;;;;;5021400;28;20041;-76
2022/12/22 07:01:31;;;;;;;9.30;3.88;;;;;;;;;;5023645;28;20033;-77
2022/12/22 07:03:57;;;;;;;6.47;4.28;;;;;;;;;;5027571;28;20053;-77
2022/12/22 07:06:23;;;;;;;5.65;3.80;;;;;;;;;;5020797;28;20033;-76
2022/12/22 07:08:49;;;;;;;8.93;3.70;;;;;;;;;;5021459;28;20032;-76
2022/12/22 07:11:16;;;;;;;6.95;3.78;;;;;;;;;;5021464;28;20596;-77
2022/12/22 07:13:43;;;;;;;12.57;4.85;;;;;;;;;;5021006;28;20017;-76
2022/12/22 07:16:09;;;;;;;10.27;6.47;;;;;;;;;;5020340;28;20103;-76
2022/12/22 07:18:37;;;;;;;7.05;4.97;;;;;;;;;;5024605;28;20033;-76
2022/12/22 07:21:04;;;;;;;9.65;5.95;;;;;;;;;;5036684;28;20082;-76
2022/12/22 07:23:30;;;;;;;12.38;6.10;;;;;;;;;;5022680;28;20064;-75
2022/12/22 07:25:56;;;;;;;9.68;6.20;;;;;;;;;;5018669;28;20172;-77
2022/12/22 07:28:23;;;;;;;9.48;5.22;;;;;;;;;;5010836;28;20607;-75
2022/12/22 07:30:50;;;;;;;6.70;5.00;;;;;;;;;;5023828;28;20021;-77
2022/12/22 07:33:16;;;;;;;10.73;4.97;;;;;;;;;;5021723;28;20021;-81
2022/12/22 07:35:42;;;;;;;11.95;6.28;;;;;;;;;;5021626;28;20034;-76
2022/12/22 07:38:08;;;;;;;13.10;6.70;;;;;;;;;;5025011;28;20535;-78
2022/12/22 07:40:35;;;;;;;8.88;6.53;;;;;;;;;;5017933;28;20030;-80
2022/12/22 07:43:01;;;;;;;13.35;6.65;;;;;;;;;;5021675;28;20057;-80
2022/12/22 07:45:28;;;;;;;12.15;8.25;;;;;;;;;;5024963;28;20021;-82
2022/12/22 07:48:00;;;;;;;11.93;7.35;;;;;;;;;;5024176;28;20705;-80
2022/12/22 07:50:27;;;;;;;12.48;8.10;;;;;;;;;;5024027;28;20034;-82
2022/12/22 07:52:57;;;;;;;14.32;9.50;;;;;;;;;;5033951;28;20017;-75
2022/12/22 07:55:24;;;;;;;23.88;10.18;;;;;;;;;;5023503;28;20533;-81
2022/12/22 07:57:50;;;;;;;17.55;14.07;;;;;;;;;;5029948;28;20071;-79
2022/12/22 08:00:17;;;;;;;16.63;13.88;;;;;;;;;;5013507;28;20490;-79
2022/12/22 08:02:48;;;;;;;15.82;10.55;;;;;;;;;;5031189;28;20026;-81
2022/12/22 08:05:14;;;;;;;17.73;13.50;;;;;;;;;;5018603;28;20095;-81
2022/12/22 08:07:40;;;;;;;18.33;12.35;;;;;;;;;;5023056;28;20029;-81
2022/12/22 08:10:07;;;;;;;15.25;11.50;;;;;;;;;;5023588;28;20545;-78
2022/12/22 08:12:33;;;;;;;20.92;11.07;;;;;;;;;;5024318;28;20029;-78
2022/12/22 08:14:59;;;;;;;12.85;11.32;;;;;;;;;;5024213;28;20033;-80
2022/12/22 08:17:26;;;;;;;14.48;10.70;;;;;;;;;;5025562;28;20022;-81
2022/12/22 08:19:53;;;;;;;11.10;8.57;;;;;;;;;;5025350;28;20033;-80
2022/12/22 08:22:22;;;;;;;11.23;8.27;;;;;;;;;;5023399;28;20033;-79
2022/12/22 08:24:49;;;;;;;13.65;8.93;;;;;;;;;;5025144;28;20070;-82
2022/12/22 08:27:17;;;;;;;10.23;8.23;;;;;;;;;;5022118;28;20152;-81
2022/12/22 08:29:46;;;;;;;7.95;7.15;;;;;;;;;;5018321;28;20021;-77
2022/12/22 08:32:12;;;;;;;10.52;8.43;;;;;;;;;;5007222;28;20037;-78
2022/12/22 08:34:39;;;;;;;12.68;9.77;;;;;;;;;;5025385;28;20017;-78
2022/12/22 08:37:07;;;;;;;12.30;9.70;;;;;;;;;;5024182;28;20121;-78
2022/12/22 08:39:35;;;;;;;14.35;10.65;;;;;;;;;;5011452;28;20108;-80
2022/12/22 08:42:03;;;;;;;15.05;10.63;;;;;;;;;;5012811;28;20418;-77
2022/12/22 08:44:30;;;;;;;14.20;11.07;;;;;;;;;;5023483;28;20021;-79
2022/12/22 08:46:56;;;;;;;12.90;10.60;;;;;;;;;;5005367;28;20030;-78
2022/12/22 08:49:23;;;;;;;14.27;11.88;;;;;;;;;;5023109;28;20498;-79
2022/12/22 08:51:49;;;;;;;16.70;11.98;;;;;;;;;;5020565;28;20028;-78
2022/12/22 08:54:15;;;;;;;12.90;10.45;;;;;;;;;;5022579;28;20490;-79
2022/12/22 08:56:42;;;;;;;17.92;11.48;;;;;;;;;;5025502;28;20041;-77
2022/12/22 08:59:08;;;;;;;16.63;11.35;;;;;;;;;;5021977;28;20022;-80
2022/12/22 09:01:38;;;;;;;14.15;10.02;;;;;;;;;;5024933;28;20033;-78
2022/12/22 09:04:05;;;;;;;12.05;8.45;;;;;;;;;;5016012;28;20025;-78
2022/12/22 09:06:32;;;;;;;8.52;6.78;;;;;;;;;;5023283;28;20117;-79
2022/12/22 09:08:59;;;;;;;11.20;7.50;;;;;;;;;;5015722;28;20017;-77
2022/12/22 09:11:26;;;;;;;15.48;11.45;;;;;;;;;;5018854;28;20108;-81
2022/12/22 09:13:53;;;;;;;14.77;11.38;;;;;;;;;;5008626;28;20105;-78
2022/12/22 09:16:20;;;;;;;15.20;11.68;;;;;;;;;;5020106;28;20385;-76
2022/12/22 09:18:47;;;;;;;24.83;15.07;;;;;;;;;;5022495;28;20025;-78
2022/12/22 09:21:13;;;;;;;21.15;14.45;;;;;;;;;;5020832;28;20742;-80
2022/12/22 09:23:39;;;;;;;23.45;15.73;;;;;;;;;;5021198;28;20029;-80
2022/12/22 09:26:09;;;;;;;20.45;14.80;;;;;;;;;;5022923;28;20647;-80
2022/12/22 09:28:36;;;;;;;19.17;14.57;;;;;;;;;;5021324;28;20052;-79
2022/12/22 09:31:02;;;;;;;16.20;13.00;;;;;;;;;;5029623;28;20052;-78
2022/12/22 09:33:28;;;;;;;15.20;10.80;;;;;;;;;;5022728;28;20025;-77
2022/12/22 09:35:55;;;;;;;11.80;7.95;;;;;;;;;;5022435;28;20317;-78
2022/12/22 09:38:21;;;;;;;10.10;7.45;;;;;;;;;;5022834;28;20025;-77
2022/12/22 09:40:47;;;;;;;9.93;7.00;;;;;;;;;;5007436;28;20704;-77
2022/12/22 09:43:17;;;;;;;11.23;6.78;;;;;;;;;;5026215;28;20365;-78
2022/12/22 09:45:44;;;;;;;8.50;6.07;;;;;;;;;;5025221;28;20104;-78
2022/12/22 09:48:12;;;;;;;9.23;6.07;;;;;;;;;;5022661;28;20424;-78
2022/12/22 09:50:39;;;;;;;13.77;6.07;;;;;;;;;;5021717;28;20031;-77
2022/12/22 09:53:06;;;;;;;8.63;5.60;;;;;;;;;;5026136;28;20032;-78
2022/12/22 09:55:32;;;;;;;12.35;6.00;;;;;;;;;;5029424;28;20037;-78
2022/12/22 09:57:58;;;;;;;7.45;5.68;;;;;;;;;;5020294;28;20017;-79
2022/12/22 10:00:26;;;;;;;9.95;6.28;;;;;;;;;;5026917;28;20037;-80
2022/12/22 10:02:57;;;;;;;8.05;6.68;;;;;;;;;;5021382;28;20044;-79
2022/12/22 10:05:29;;;;;;;8.27;6.70;;;;;;;;;;5030093;28;20049;-80
2022/12/22 10:08:06;;;;;;;9.10;7.30;;;;;;;;;;5020984;28;20070;-81
2022/12/22 10:10:32;;;;;;;10.57;7.60;;;;;;;;;;5022030;28;20079;-81
2022/12/22 10:12:59;;;;;;;10.45;8.15;;;;;;;;;;5020112;28;20065;-79
2022/12/22 10:15:26;;;;;;;12.30;7.07;;;;;;;;;;5014079;28;20029;-80
2022/12/22 10:18:08;;;;;;;12.95;7.93;;;;;;;;;;5026872;28;20018;-81
2022/12/22 10:20:37;;;;;;;9.43;6.78;;;;;;;;;;5021791;28;20028;-79
2022/12/22 10:23:34;;;;;;;12.27;8.23;;;;;;;;;;5022185;28;20140;-79
2022/12/22 10:26:07;;;;;;;11.35;7.70;;;;;;;;;;4996919;28;20298;-79
2022/12/22 10:28:35;;;;;;;13.43;9.10;;;;;;;;;;5004977;28;20021;-78
2022/12/22 10:31:13;;;;;;;10.65;8.20;;;;;;;;;;5019933;28;20030;-76
2022/12/22 10:33:39;;;;;;;11.82;7.50;;;;;;;;;;5004572;28;20065;-79
2022/12/22 10:36:06;;;;;;;9.77;4.80;;;;;;;;;;5024525;28;20467;-80
2022/12/22 10:38:34;;;;;;;5.35;3.58;;;;;;;;;;5024142;28;20028;-79
2022/12/22 10:41:08;;;;;;;15.00;5.60;;;;;;;;;;5025453;28;20025;-78
2022/12/22 10:43:37;;;;;;;17.27;5.88;;;;;;;;;;5004974;28;20079;-77
2022/12/22 10:46:03;;;;;;;14.50;4.90;;;;;;;;;;5010483;28;20048;-78
2022/12/22 10:48:33;;;;;;;9.15;4.20;;;;;;;;;;5019797;28;20021;-79
2022/12/22 10:51:00;;;;;;;7.15;4.43;;;;;;;;;;5028249;28;20651;-77
2022/12/22 10:53:47;;;;;;;18.83;5.00;;;;;;;;;;5009899;28;20457;-78
2022/12/22 10:56:32;;;;;;;7.15;4.45;;;;;;;;;;5011128;28;20029;-77
2022/12/22 10:59:01;;;;;;;11.70;5.60;;;;;;;;;;5005493;28;20132;-77
2022/12/22 11:01:31;;;;;;;12.30;4.50;;;;;;;;;;5020298;28;20108;-78
2022/12/22 11:04:13;;;;;;;9.30;4.15;;;;;;;;;;5025423;28;20351;-77
2022/12/22 11:06:39;;;;;;;;;;;;;;;;;;5020169;28;20025;-77
2022/12/22 11:09:08;;;;;;;7.95;4.30;;;;;;;;;;5020640;28;19963;-77
2022/12/22 11:11:46;;;;;;;5.70;4.28;;;;;;;;;;5020511;28;20022;-78
2022/12/22 11:14:20;;;;;;;9.32;4.50;;;;;;;;;;5028708;28;20029;-79
2022/12/22 11:16:50;;;;;;;12.93;4.47;;;;;;;;;;5021197;28;20042;-81
2022/12/22 11:19:35;;;;;;;10.60;4.38;;;;;;;;;;5013644;28;20013;-79
2022/12/22 11:22:16;;;;;;;9.63;4.78;;;;;;;;;;5011554;28;20034;-82
2022/12/22 11:24:52;;;;;;;7.25;3.63;;;;;;;;;;5020907;28;20719;-77
2022/12/22 11:27:21;;;;;;;7.25;3.88;;;;;;;;;;5016163;28;20132;-78
2022/12/22 11:29:47;;;;;;;7.38;3.97;;;;;;;;;;5026846;28;20030;-78
2022/12/22 11:32:13;;;;;;;8.30;4.55;;;;;;;;;;5020011;28;20104;-78
2022/12/22 11:34:43;;;;;;;7.18;4.55;;;;;;;;;;5021251;28;20100;-78
2022/12/22 11:37:12;;;;;;;9.25;5.00;;;;;;;;;;5030537;28;20397;-78
2022/12/22 11:39:50;;;;;;;7.55;4.53;;;;;;;;;;5020565;28;20536;-77
2022/12/22 11:42:31;;;;;;;7.22;4.15;;;;;;;;;;5007703;28;20144;-80
2022/12/22 11:45:16;;;;;;;12.65;4.38;;;;;;;;;;5023336;28;20025;-80
2022/12/22 11:47:54;;;;;;;6.50;4.65;;;;;;;;;;5020193;28;20036;-79
2022/12/22 11:50:24;;;;;;;5.45;4.13;;;;;;;;;;5017127;28;20033;-79
2022/12/22 11:52:58;;;;;;;7.45;4.40;;;;;;;;;;5028274;28;20302;-80
2022/12/22 11:55:28;;;;;;;10.02;4.88;;;;;;;;;;5013995;28;20033;-80
2022/12/22 11:58:13;;;;;;;6.65;4.68;;;;;;;;;;5029890;28;20040;-79
2022/12/22 12:00:46;;;;;;;6.57;4.40;;;;;;;;;;5015195;28;20096;-79
2022/12/22 12:03:18;;;;;;;10.15;4.32;;;;;;;;;;5021200;28;20116;-79
2022/12/22 12:06:03;;;;;;;8.55;3.83;;;;;;;;;;5036243;28;20590;-78
2022/12/22 12:08:38;;;;;;;7.65;4.75;;;;;;;;;;5034204;28;20132;-77
2022/12/22 12:11:17;;;;;;;7.32;4.30;;;;;;;;;;5030787;28;20049;-77
2022/12/22 12:14:01;;;;;;;6.32;4.32;;;;;;;;;;5024267;28;20474;-77
2022/12/22 12:16:46;;;;;;;8.45;4.47;;;;;;;;;;5024123;28;20037;-78
2022/12/22 12:19:31;;;;;;;6.80;4.70;;;;;;;;;;5022877;28;20418;-78
2022/12/22 12:21:58;;;;;;;8.43;5.20;;;;;;;;;;5026380;28;20029;-79
2022/12/22 12:24:33;;;;;;;8.48;4.50;;;;;;;;;;5020858;28;20028;-78
2022/12/22 12:27:18;;;;;;;7.75;4.35;;;;;;;;;;5032612;28;20056;-80
2022/12/22 12:29:55;;;;;;;7.32;4.82;;;;;;;;;;5021620;28;20025;-82
2022/12/22 12:32:26;;;;;;;7.43;5.50;;;;;;;;;;5024339;28;20562;-77
2022/12/22 12:34:57;;;;;;;6.60;4.75;;;;;;;;;;5021908;28;20509;-82
2022/12/22 12:37:30;;;;;;;8.50;4.80;;;;;;;;;;5010756;28;20032;-80
2022/12/22 12:39:56;;;;;;;10.95;6.38;;;;;;;;;;5023921;28;20624;-83
2022/12/22 12:42:22;;;;;;;9.88;7.00;;;;;;;;;;5028762;28;20018;-79
2022/12/22 12:44:51;;;;;;;11.40;6.13;;;;;;;;;;5023238;28;20029;-82
2022/12/22 12:47:23;;;;;;;11.32;6.90;;;;;;;;;;5022266;28;20029;-81
2022/12/22 12:50:21;;;;;;;14.15;6.38;;;;;;;;;;5024930;28;20029;-84
2022/12/22 12:52:49;;;;;;;9.93;6.07;;;;;;;;;;5018143;28;20059;-82
2022/12/22 12:55:30;;;;;;;7.03;5.55;;;;;;;;;;5022491;28;20061;-81
2022/12/22 12:57:57;;;;;;;8.98;5.72;;;;;;;;;;5023864;28;20037;-75
2022/12/22 13:00:33;;;;;;;9.02;7.05;;;;;;;;;;5022268;28;20405;-76
2022/12/22 13:03:00;;;;;;;9.52;5.53;;;;;;;;;;5015194;28;20064;-76
2022/12/22 13:05:35;;;;;;;13.48;5.40;;;;;;;;;;5022946;28;20026;-75
2022/12/22 13:08:10;;;;;;;9.52;4.70;;;;;;;;;;5027414;28;20052;-79
2022/12/22 13:10:44;;;;;;;13.48;6.07;;;;;;;;;;5028664;28;20087;-83
2022/12/22 13:13:12;;;;;;;10.57;5.60;;;;;;;;;;5022064;28;20024;-82
2022/12/22 13:15:39;;;;;;;20.77;5.70;;;;;;;;;;5027481;28;20616;-80
2022/12/22 13:18:11;;;;;;;10.57;5.35;;;;;;;;;;5022898;28;20025;-84
2022/12/22 13:20:37;;;;;;;;;;;;;;;;;;5022197;28;20065;-84
2022/12/22 13:23:10;;;;;;;9.05;4.18;;;;;;;;;;5023242;28;20437;-77
2022/12/22 13:25:40;;;;;;;5.75;4.28;;;;;;;;;;5019070;28;20105;-80
2022/12/22 13:28:11;;;;;;;8.18;4.00;;;;;;;;;;5023095;28;20022;-74
2022/12/22 13:30:37;;;;;;;11.80;4.18;;;;;;;;;;5019466;28;20021;-80
2022/12/22 13:33:03;;;;;;;8.20;4.15;;;;;;;;;;5010026;28;20071;-81
2022/12/22 13:35:29;;;;;;;9.95;3.90;;;;;;;;;;5021960;28;20089;-74
2022/12/22 13:37:56;;;;;;;10.50;3.70;;;;;;;;;;5021672;28;20029;-80
2022/12/22 13:40:23;;;;;;;7.40;3.03;;;;;;;;;;5003954;28;20039;-80
2022/12/22 13:42:57;;;;;;;9.50;4.00;;;;;;;;;;5022758;28;20045;-78
2022/12/22 13:45:32;;;;;;;7.03;3.47;;;;;;;;;;5023742;28;20649;-80
2022/12/22 13:47:59;;;;;;;6.68;3.28;;;;;;;;;;5021903;28;20029;-79
2022/12/22 13:50:32;;;;;;;7.28;3.83;;;;;;;;;;5020266;28;20029;-75
2022/12/22 13:53:00;;;;;;;9.25;3.30;;;;;;;;;;5012341;28;20037;-79
2022/12/22 13:55:28;;;;;;;8.18;3.70;;;;;;;;;;5008576;28;20032;-77
2022/12/22 13:57:54;;;;;;;10.00;3.88;;;;;;;;;;5012530;28;20025;-74
2022/12/22 14:00:23;;;;;;;6.82;3.60;;;;;;;;;;5007068;28;20045;-75
2022/12/22 14:02:49;;;;;;;7.90;3.67;;;;;;;;;;5006498;28;20620;-81
2022/12/22 14:05:16;;;;;;;12.82;4.18;;;;;;;;;;5030893;28;20025;-79
2022/12/22 14:08:04;;;;;;;7.53;4.03;;;;;;;;;;5009159;28;20037;-76
2022/12/22 14:10:37;;;;;;;6.65;4.15;;;;;;;;;;5016740;28;20033;-80
2022/12/22 14:13:05;;;;;;;9.40;3.67;;;;;;;;;;5020971;28;20021;-83
2022/12/22 14:15:32;;;;;;;7.75;3.95;;;;;;;;;;5028088;28;20043;-78
2022/12/22 14:17:58;;;;;;;7.38;3.72;;;;;;;;;;5021000;28;20074;-80
2022/12/22 14:20:29;;;;;;;8.02;3.88;;;;;;;;;;5021502;28;20037;-79
2022/12/22 14:23:05;;;;;;;5.65;3.55;;;;;;;;;;5019707;28;20079;-75
2022/12/22 14:25:32;;;;;;;7.45;3.63;;;;;;;;;;5023606;28;20083;-75
2022/12/22 14:27:59;;;;;;;6.07;3.90;;;;;;;;;;5016369;28;20033;-77
2022/12/22 14:30:41;;;;;;;11.80;3.47;;;;;;;;;;5026888;28;20172;-79
2022/12/22 14:33:16;;;;;;;6.70;2.95;;;;;;;;;;5024431;28;20013;-80
2022/12/22 14:35:42;;;;;;;6.95;2.83;;;;;;;;;;5025135;28;20041;-80
2022/12/22 14:38:15;;;;;;;8.70;2.85;;;;;;;;;;5022140;28;20018;-80
2022/12/22 14:40:43;;;;;;;8.15;3.53;;;;;;;;;;5024659;28;20075;-74
2022/12/22 14:43:18;;;;;;;8.85;3.05;;;;;;;;;;5016392;28;20026;-74
2022/12/22 14:45:45;;;;;;;4.22;2.38;;;;;;;;;;5015924;28;20021;-78
2022/12/22 14:48:18;;;;;;;6.20;3.88;;;;;;;;;;5025484;28;20798;-79
2022/12/22 14:50:48;;;;;;;9.48;3.38;;;;;;;;;;5022596;28;20043;-77
2022/12/22 14:53:15;;;;;;;8.25;3.15;;;;;;;;;;5021616;28;20030;-80
2022/12/22 14:55:48;;;;;;;5.47;2.97;;;;;;;;;;5020161;28;20049;-79
2022/12/22 14:58:14;;;;;;;5.25;2.90;;;;;;;;;;5021644;28;20049;-81
2022/12/22 15:00:44;;;;;;;6.25;3.75;;;;;;;;;;5021182;28;20017;-81
2022/12/22 15:03:45;;;;;;;9.82;3.65;;;;;;;;;;5021484;28;20567;-75
2022/12/22 15:06:31;;;;;;;6.32;2.95;;;;;;;;;;4958422;28;20519;-81
2022/12/22 15:09:07;;;;;;;14.40;3.40;;;;;;;;;;5008679;28;20068;-80
2022/12/22 15:11:35;;;;;;;7.00;3.30;;;;;;;;;;5020626;28;20037;-79
2022/12/22 15:14:02;;;;;;;6.47;2.90;;;;;;;;;;5021260;28;20112;-78
2022/12/22 15:16:28;;;;;;;11.82;3.40;;;;;;;;;;5020902;28;20064;-80
2022/12/22 15:18:55;;;;;;;10.18;3.88;;;;;;;;;;5019370;28;20028;-78
2022/12/22 15:21:21;;;;;;;12.00;4.18;;;;;;;;;;5029782;28;20516;-80
2022/12/22 15:23:48;;;;;;;8.48;3.30;;;;;;;;;;5029211;28;20393;-80
2022/12/22 15:26:14;;;;;;;6.22;2.80;;;;;;;;;;5021480;28;20129;-79
2022/12/22 15:28:40;;;;;;;4.75;2.95;;;;;;;;;;5019985;28;20025;-78
2022/12/22 15:31:13;;;;;;;5.03;3.03;;;;;;;;;;5026015;28;20028;-79
2022/12/22 15:33:39;;;;;;;8.73;2.80;;;;;;;;;;5032040;28;20029;-80
2022/12/22 15:36:06;;;;;;;8.25;3.38;;;;;;;;;;5015870;28;20041;-80
2022/12/22 15:38:32;;;;;;;12.27;3.58;;;;;;;;;;5025377;28;20024;-79
2022/12/22 15:40:58;;;;;;;7.43;3.03;;;;;;;;;;5023668;28;20068;-76
2022/12/22 15:43:24;;;;;;;7.85;3.28;;;;;;;;;;5037184;28;20891;-78
2022/12/22 15:45:50;;;;;;;9.27;3.50;;;;;;;;;;5035411;28;20018;-79
2022/12/22 15:48:31;;;;;;;10.18;3.30;;;;;;;;;;5024413;28;20032;-76
2022/12/22 15:50:58;;;;;;;7.90;3.95;;;;;;;;;;5020701;28;20037;-79
2022/12/22 15:53:24;;;;;;;12.75;4.18;;;;;;;;;;5032130;28;20029;-79
2022/12/22 15:55:52;;;;;;;7.40;3.63;;;;;;;;;;5020853;28;20931;-82
2022/12/22 15:58:20;;;;;;;5.80;3.05;;;;;;;;;;5019646;28;20041;-82
2022/12/22 16:00:47;;;;;;;12.82;3.67;;;;;;;;;;5033472;28;20116;-79
2022/12/22 16:03:13;;;;;;;10.02;3.78;;;;;;;;;;5035366;28;20014;-74
2022/12/22 16:05:40;;;;;;;7.22;3.80;;;;;;;;;;5035785;28;20060;-81
2022/12/22 16:08:12;;;;;;;7.40;3.30;;;;;;;;;;5027449;28;20048;-82
2022/12/22 16:10:38;;;;;;;8.10;3.38;;;;;;;;;;5025125;28;20025;-81
2022/12/22 16:13:04;;;;;;;8.52;3.80;;;;;;;;;;5030372;28;20024;-80
2022/12/22 16:15:32;;;;;;;7.32;3.55;;;;;;;;;;5031811;28;20033;-78
2022/12/22 16:17:59;;;;;;;9.30;3.60;;;;;;;;;;5019587;28;20100;-82
2022/12/22 16:20:26;;;;;;;5.22;3.15;;;;;;;;;;5022274;28;20654;-82
2022/12/22 16:22:52;;;;;;;7.22;3.13;;;;;;;;;;5027305;28;20029;-82
2022/12/22 16:25:22;;;;;;;8.88;3.75;;;;;;;;;;5027812;28;20025;-81
2022/12/22 16:27:49;;;;;;;10.02;4.10;;;;;;;;;;5007481;28;20049;-82
2022/12/22 16:30:21;;;;;;;10.60;3.55;;;;;;;;;;5029358;28;20025;-79
2022/12/22 16:32:47;;;;;;;11.15;4.57;;;;;;;;;;5033520;28;20147;-82
2022/12/22 16:35:20;;;;;;;6.93;3.78;;;;;;;;;;5033771;28;20096;-76
2022/12/22 16:37:50;;;;;;;8.18;3.55;;;;;;;;;;5034333;28;20433;-78
2022/12/22 16:40:17;;;;;;;7.07;3.30;;;;;;;;;;5034122;28;20044;-80
2022/12/22 16:42:47;;;;;;;5.80;3.30;;;;;;;;;;5035296;28;20025;-82
2022/12/22 16:45:16;;;;;;;9.10;3.13;;;;;;;;;;5035020;28;20013;-80
2022/12/22 16:47:42;;;;;;;5.03;2.88;;;;;;;;;;5035938;28;20033;-81
2022/12/22 16:50:15;;;;;;;10.50;3.00;;;;;;;;;;5034485;28;20096;-75
2022/12/22 16:52:41;;;;;;;5.70;2.65;;;;;;;;;;5037288;28;20025;-79
2022/12/22 16:55:15;;;;;;;8.23;2.72;;;;;;;;;;5036821;28;20021;-74
2022/12/22 16:57:41;;;;;;;7.20;3.00;;;;;;;;;;5039348;28;20068;-82
2022/12/22 17:00:09;;;;;;;8.95;3.28;;;;;;;;;;5033023;28;20018;-82
2022/12/22 17:02:36;;;;;;;5.43;2.88;;;;;;;;;;5036797;28;20100;-80
2022/12/22 17:05:02;;;;;;;4.90;2.88;;;;;;;;;;5034059;28;20697;-78
2022/12/22 17:07:31;;;;;;;5.60;2.90;;;;;;;;;;5036765;28;20025;-81
2022/12/22 17:10:00;;;;;;;7.82;2.90;;;;;;;;;;5040003;28;20031;-83
2022/12/22 17:12:28;;;;;;;4.47;2.80;;;;;;;;;;5037502;28;20742;-78
2022/12/22 17:14:56;;;;;;;6.53;2.58;;;;;;;;;;5039077;28;20111;-77
2022/12/22 17:17:22;;;;;;;5.32;2.63;;;;;;;;;;5030677;28;20064;-81
2022/12/22 17:19:49;;;;;;;3.53;2.47;;;;;;;;;;5035866;28;20021;-82
2022/12/22 17:22:28;;;;;;;5.97;2.63;;;;;;;;;;5033081;28;20462;-77
2022/12/22 17:24:56;;;;;;;8.57;2.40;;;;;;;;;;5039190;28;20538;-82
2022/12/22 17:27:32;;;;;;;6.38;2.65;;;;;;;;;;5029989;28;20041;-81
2022/12/22 17:30:04;;;;;;;6.07;2.63;;;;;;;;;;5020709;28;20136;-82
2022/12/22 17:32:30;;;;;;;6.57;2.20;;;;;;;;;;5022653;28;20025;-80
2022/12/22 17:34:56;;;;;;;5.68;2.05;;;;;;;;;;5030583;28;20031;-81
2022/12/22 17:37:23;;;;;;;5.43;2.50;;;;;;;;;;5025835;28;20044;-78
2022/12/22 17:39:51;;;;;;;3.90;1.98;;;;;;;;;;5028589;28;20018;-82
2022/12/22 17:42:18;;;;;;;6.65;2.55;;;;;;;;;;5026797;28;20088;-82
2022/12/22 17:44:44;;;;;;;3.47;2.17;;;;;;;;;;5022595;28;20029;-76
2022/12/22 17:47:14;;;;;;;11.00;2.78;;;;;;;;;;5030747;28;20108;-80
2022/12/22 17:49:41;;;;;;;7.72;2.25;;;;;;;;;;5022067;28;20608;-81
2022/12/22 17:52:17;;;;;;;8.48;2.30;;;;;;;;;;5026588;28;20026;-82
2022/12/22 17:54:44;;;;;;;3.83;1.95;;;;;;;;;;5027183;28;20608;-82
2022/12/22 17:57:15;;;;;;;5.90;2.17;;;;;;;;;;5022369;28;20985;-81
2022/12/22 17:59:41;;;;;;;2.67;1.88;;;;;;;;;;5027759;28;20064;-80
2022/12/22 18:02:12;;;;;;;5.65;2.10;;;;;;;;;;5024215;28;20159;-73
2022/12/22 18:04:38;;;;;;;5.10;2.38;;;;;;;;;;5022257;28;20022;-82
2022/12/22 18:07:04;;;;;;;6.00;2.50;;;;;;;;;;5028517;28;20026;-79
2022/12/22 18:09:31;;;;;;;7.43;2.75;;;;;;;;;;5021902;28;20125;-81
2022/12/22 18:11:57;;;;;;;12.50;2.70;;;;;;;;;;5020009;28;20017;-82
2022/12/22 18:14:23;;;;;;;5.70;2.67;;;;;;;;;;5028435;28;20026;-75
2022/12/22 18:16:49;;;;;;;3.72;2.78;;;;;;;;;;5024704;28;20057;-81
2022/12/22 18:19:15;;;;;;;6.57;2.85;;;;;;;;;;5021980;28;20026;-83
2022/12/22 18:21:41;;;;;;;5.38;2.47;;;;;;;;;;5022039;28;20029;-78
2022/12/22 18:24:15;;;;;;;5.93;2.13;;;;;;;;;;5021858;28;20091;-79
2022/12/22 18:26:42;;;;;;;4.30;2.10;;;;;;;;;;5029482;28;20075;-81